Pago Pago, AS

11:01 PM SST on July 22, 2014 (GMT -1100)
Kona International At Keahole (PHKO) Elev 43 ft | 19.74 °N, 156.05 °W | Change Station

Current weather conditions updated 8 minutes ago

Partly Cloudy
Partly Cloudy
79 °F
Feels Like 79 °F
N
0
Wind Variable Wind from North

Tomorrow is forecast to be Cooler than today. Thunderstorms.

Today
High -- | Low -- °F
--% Chance of Precip.
Yesterday
High -- | Low -- °F
Precip. -- in
6:47 AM 6:11 PM
Waning Crescent, 11% visible
Pressure 29.99 in
Visibility 10.0 miles
Clouds Few 3800 ft
Dew Point 70 °F
Humidity 74%
Rainfall 0.19 in
Snow Depth Not available.
UV 0 out of 12
Pollen Not available.
Air Quality Not available.
Flu Activity Not available.
METAR PHKO 230953Z AUTO 00000KT 10SM FEW038 26/21 A2999 RMK AO2 SLP156 T02610211 403110233 TSNO

More Conditions Fewer Conditions

Pressure 29.99 in
Visibility 10.0 miles
Clouds Few 3800 ft
Dew Point 70 °F
Humidity 74%
Rainfall 0.19 in
Snow Depth Not available.
UV 0 out of 12
Pollen Not available.
Air Quality Not available.
Flu Activity Not available.
METAR PHKO 230953Z AUTO 00000KT 10SM FEW038 26/21 A2999 RMK AO2 SLP156 T02610211 403110233 TSNO

More Conditions Fewer Conditions

10-Day Weather Forecast

Almanac

Astronomy

Jul. 22, 2014 Rise Set
Actual Time 6:47 AM SST 6:11 PM SST
Civil Twilight 6:24 AM SST 6:34 PM SST
Nautical Twilight 5:58 AM SST 7:00 PM SST
Astronomical Twilight 5:32 AM SST 7:26 PM SST
Moon 3:22 AM SST (7/22) 3:06 PM SST (7/22)
Length of Visible Light 12h 10m
Length of Day
11h 24m
Tomorrow will be 0m 28s longer.
Waning Crescent, 11% of the Moon is Illuminated
Jul 23
Waning Crescent
Jul 26
New
Aug 3
First Quarter
Aug 10
Full
Aug 17
Last Quarter

Community

WunderPhotos

Upload Photos

1,736,535 photos uploaded!

Nearby

Snow Depth

Station Depth Elevation
No new snow has been reported.

Earthquake Activity

City Distance Mag. Time & Date
No recent earthquake activity has been reported nearby.
Minimum magnitude displayed is 2.5.

Coastal Water Temperatures

Place Temperature
No Stations Reporting

Nearby Weather Stations

There are no personal weather stations in this area.